createdAt,value
2018-08-17T00:02:05.132Z,100233.13
2018-08-17T00:05:02.971Z,100232.81
2018-08-17T00:08:00.374Z,100226.96
2018-08-17T00:10:58.325Z,100228.95
2018-08-17T00:13:56.163Z,100229.94
2018-08-17T00:16:54.060Z,100231.93
2018-08-17T00:19:52.001Z,100226.66
2018-08-17T00:22:49.491Z,100224.38
2018-08-17T00:25:46.471Z,100227.52
2018-08-17T00:28:44.351Z,100221.41
2018-08-17T00:31:42.280Z,100217.48
2018-08-17T00:34:39.447Z,100216.16
2018-08-17T00:37:36.677Z,100222.73
2018-08-17T00:40:34.672Z,100218.09
2018-08-17T00:43:31.719Z,100221.16
2018-08-17T00:46:29.838Z,100221.02
2018-08-17T00:49:27.904Z,100214.54
2018-08-17T00:52:25.171Z,100213.53
2018-08-17T00:55:22.831Z,100213.55
2018-08-17T00:58:20.026Z,100212.05
2018-08-17T01:01:17.915Z,100213.23
2018-08-17T01:04:15.807Z,100216.19
2018-08-17T01:07:13.724Z,100219.19
2018-08-17T01:10:11.253Z,100214.88
2018-08-17T01:13:08.645Z,100214.38
2018-08-17T01:16:06.520Z,100220.21
2018-08-17T01:19:04.598Z,100217.75
2018-08-17T01:22:02.474Z,100212.30
2018-08-17T01:25:00.472Z,100211.14
2018-08-17T01:27:57.563Z,100205.14
2018-08-17T01:30:55.371Z,100204.98
2018-08-17T01:33:52.412Z,100201.86
2018-08-17T01:36:50.327Z,100196.37
2018-08-17T01:39:48.307Z,100197.52
2018-08-17T01:42:46.048Z,100203.97
2018-08-17T01:45:43.981Z,100197.14
2018-08-17T01:48:41.934Z,100204.97
2018-08-17T01:51:39.706Z,100194.34
2018-08-17T01:54:37.751Z,100195.70
2018-08-17T01:57:35.657Z,100191.08
2018-08-17T02:00:33.622Z,100204.84
2018-08-17T02:03:31.597Z,100200.02
2018-08-17T02:06:29.696Z,100200.99
2018-08-17T02:09:29.720Z,100207.47
2018-08-17T02:12:27.548Z,100203.98
2018-08-17T02:15:25.636Z,100212.12
2018-08-17T02:18:23.415Z,100214.29
2018-08-17T02:21:21.228Z,100214.95
2018-08-17T02:24:19.353Z,100209.83
2018-08-17T02:27:16.944Z,100215.61
2018-08-17T02:30:15.087Z,100222.27
2018-08-17T02:33:12.269Z,100223.27
2018-08-17T02:36:10.428Z,100225.92
2018-08-17T02:39:07.567Z,100225.92
2018-08-17T02:42:05.737Z,100229.40
2018-08-17T02:45:02.825Z,100236.54
2018-08-17T02:48:00.763Z,100242.34
2018-08-17T02:50:58.601Z,100242.33
2018-08-17T02:53:56.292Z,100240.83
2018-08-17T02:56:54.320Z,100241.83
2018-08-17T02:59:52.169Z,100238.09
2018-08-17T03:02:50.028Z,100229.30
2018-08-17T03:05:47.836Z,100232.66
2018-08-17T03:08:45.784Z,100234.19
2018-08-17T03:11:42.758Z,100233.35
2018-08-17T03:17:44.787Z,100240.64
2018-08-17T03:20:42.816Z,100233.02
2018-08-17T03:23:40.899Z,100229.74
2018-08-17T03:26:38.812Z,100229.36
2018-08-17T03:29:36.123Z,100245.83
2018-08-17T03:32:33.329Z,100244.84
2018-08-17T03:35:31.251Z,100248.38
2018-08-17T03:38:29.198Z,100255.34
2018-08-17T03:41:26.275Z,100263.55
2018-08-17T03:44:23.872Z,100266.06
2018-08-17T03:47:21.170Z,100265.11
2018-08-17T03:50:19.980Z,100272.73
2018-08-17T03:53:17.235Z,100277.09
2018-08-17T03:56:14.580Z,100278.92
2018-08-17T03:59:12.652Z,100282.16
2018-08-17T04:02:09.793Z,100281.78
2018-08-17T04:05:07.803Z,100283.08
2018-08-17T04:08:05.777Z,100297.22
2018-08-17T04:11:03.759Z,100300.72
2018-08-17T04:14:01.689Z,100307.11
2018-08-17T04:16:59.711Z,100313.59
2018-08-17T04:19:57.683Z,100315.11
2018-08-17T04:22:55.588Z,100318.47
2018-08-17T04:25:52.721Z,100325.44
2018-08-17T04:28:50.768Z,100331.75
2018-08-17T04:31:48.996Z,100323.47
2018-08-17T04:34:46.954Z,100327.96
2018-08-17T04:37:45.127Z,100332.12
2018-08-17T04:40:43.271Z,100326.62
2018-08-17T04:43:40.769Z,100326.30
2018-08-17T04:46:38.556Z,100327.80
2018-08-17T04:49:36.573Z,100335.78
2018-08-17T04:52:34.043Z,100338.77
2018-08-17T04:55:31.749Z,100349.53
2018-08-17T04:58:29.836Z,100343.38
2018-08-17T05:01:27.650Z,100343.30
2018-08-17T05:04:25.780Z,100348.84
2018-08-17T05:07:23.703Z,100357.37
2018-08-17T05:10:21.588Z,100357.28
2018-08-17T05:13:19.712Z,100363.69
2018-08-17T05:16:17.664Z,100372.90
2018-08-17T05:19:15.744Z,100383.13
2018-08-17T05:22:13.821Z,100385.80
2018-08-17T05:25:11.972Z,100385.55
2018-08-17T05:28:09.728Z,100386.86
2018-08-17T05:31:07.307Z,100390.80
2018-08-17T05:34:04.874Z,100387.06
2018-08-17T05:37:02.048Z,100377.03
2018-08-17T05:39:59.883Z,100377.24
2018-08-17T05:42:56.961Z,100386.37
2018-08-17T05:45:54.322Z,100390.69
2018-08-17T05:48:51.493Z,100383.70
2018-08-17T05:51:48.758Z,100377.80
2018-08-17T05:54:45.933Z,100374.41
2018-08-17T05:57:43.252Z,100386.42
2018-08-17T06:00:41.317Z,100394.78
2018-08-17T06:03:39.905Z,100394.00
2018-08-17T06:06:37.976Z,100397.36
2018-08-17T06:09:35.279Z,100397.80
2018-08-17T06:12:32.257Z,100406.30
2018-08-17T06:15:30.178Z,100403.92
2018-08-17T06:18:27.615Z,100407.03
2018-08-17T06:21:25.512Z,100407.64
2018-08-17T06:24:22.943Z,100408.98
2018-08-17T06:27:20.932Z,100417.33
2018-08-17T06:30:17.875Z,100415.47
2018-08-17T06:33:15.870Z,100421.48
2018-08-17T06:36:13.916Z,100420.68
2018-08-17T06:39:11.788Z,100420.63
2018-08-17T06:42:08.900Z,100426.09
2018-08-17T06:45:06.909Z,100425.70
2018-08-17T06:48:04.881Z,100429.23
2018-08-17T06:51:02.588Z,100430.18
2018-08-17T06:54:00.558Z,100445.74
2018-08-17T06:56:57.721Z,100436.71
2018-08-17T06:59:55.773Z,100442.20
2018-08-17T07:02:53.966Z,100441.84
2018-08-17T07:05:51.160Z,100439.95
2018-08-17T07:08:48.234Z,100442.57
2018-08-17T07:11:45.441Z,100438.18
2018-08-17T07:14:42.748Z,100456.38
2018-08-17T07:17:40.652Z,100454.01
2018-08-17T07:20:37.992Z,100458.33
2018-08-17T07:23:35.919Z,100467.17
2018-08-17T07:26:33.693Z,100473.88
2018-08-17T07:29:31.624Z,100467.13
2018-08-17T07:32:28.819Z,100475.59
2018-08-17T07:35:28.045Z,100483.63
2018-08-17T07:38:25.953Z,100496.34
2018-08-17T07:41:23.309Z,100509.52
2018-08-17T07:44:21.483Z,100506.67
2018-08-17T07:47:19.672Z,100507.87
2018-08-17T07:50:20.948Z,100519.12
2018-08-17T07:53:18.386Z,100521.38
2018-08-17T07:56:16.262Z,100523.17
2018-08-17T07:59:13.348Z,100522.13
2018-08-17T08:02:10.640Z,100517.62
2018-08-17T08:05:07.981Z,100508.51
2018-08-17T08:08:05.508Z,100510.59
2018-08-17T08:11:03.096Z,100516.32
2018-08-17T08:14:01.072Z,100524.23
2018-08-17T08:16:59.024Z,100526.18
2018-08-17T08:19:57.064Z,100531.98
2018-08-17T08:22:54.983Z,100527.72
2018-08-17T08:25:54.128Z,100529.56
2018-08-17T08:28:52.520Z,100544.13
2018-08-17T08:31:49.678Z,100559.42
2018-08-17T08:34:47.762Z,100562.33
2018-08-17T08:37:45.344Z,100563.77
2018-08-17T08:40:43.067Z,100556.70
2018-08-17T08:43:40.840Z,100564.92
2018-08-17T08:46:37.924Z,100555.59
2018-08-17T08:49:36.143Z,100558.75
2018-08-17T08:52:34.272Z,100574.27
2018-08-17T08:55:31.560Z,100576.37
2018-08-17T08:58:29.559Z,100572.92
2018-08-17T09:01:27.569Z,100570.62
2018-08-17T09:04:24.996Z,100573.49
2018-08-17T09:07:22.752Z,100568.20
2018-08-17T09:10:20.931Z,100577.71
2018-08-17T09:13:18.232Z,100580.81
2018-08-17T09:16:16.324Z,100565.88
2018-08-17T09:19:14.252Z,100562.87
2018-08-17T09:22:12.159Z,100552.57
2018-08-17T09:25:10.045Z,100537.04
2018-08-17T09:28:07.980Z,100521.73
2018-08-17T09:31:06.023Z,100509.54
2018-08-17T09:34:03.188Z,100497.81
2018-08-17T09:37:00.647Z,100479.69
2018-08-17T09:39:58.827Z,100464.67
2018-08-17T09:42:56.872Z,100472.38
2018-08-17T09:45:53.880Z,100475.30
2018-08-17T09:48:50.993Z,100465.20
2018-08-17T09:51:49.095Z,100465.83
2018-08-17T09:54:47.266Z,100456.86
2018-08-17T09:57:44.578Z,100457.94
2018-08-17T10:00:52.539Z,100449.50
2018-08-17T10:03:51.341Z,100445.12
2018-08-17T10:06:55.121Z,100470.57
2018-08-17T10:09:59.069Z,100469.38
2018-08-17T10:12:58.289Z,100468.42
2018-08-17T10:15:56.393Z,100468.67
2018-08-17T10:18:54.583Z,100478.61
2018-08-17T10:21:58.012Z,100489.88
2018-08-17T10:24:55.128Z,100492.92
2018-08-17T10:27:58.158Z,100499.08
2018-08-17T10:30:55.609Z,100497.54
2018-08-17T10:33:52.698Z,100492.80
2018-08-17T10:36:50.840Z,100488.11
2018-08-17T10:39:47.902Z,100493.09
2018-08-17T10:42:45.228Z,100492.66
2018-08-17T10:45:42.651Z,100494.34
2018-08-17T10:48:40.100Z,100488.46
2018-08-17T10:51:44.903Z,100500.81
2018-08-17T10:54:42.134Z,100492.20
2018-08-17T10:57:39.273Z,100487.63
2018-08-17T11:00:36.584Z,100485.07
2018-08-17T11:03:34.752Z,100475.66
2018-08-17T11:06:32.754Z,100487.78
2018-08-17T11:09:31.141Z,100485.83
2018-08-17T11:12:29.171Z,100485.35
2018-08-17T11:15:28.310Z,100492.03
2018-08-17T11:18:26.440Z,100495.16
2018-08-17T11:21:24.459Z,100490.30
2018-08-17T11:24:22.517Z,100504.77
2018-08-17T11:27:19.616Z,100494.16
2018-08-17T11:30:17.009Z,100491.68
2018-08-17T11:33:15.237Z,100502.81
2018-08-17T11:36:14.195Z,100494.13
2018-08-17T11:39:12.689Z,100503.92
2018-08-17T11:42:10.249Z,100516.47
2018-08-17T11:45:08.264Z,100529.18
2018-08-17T11:51:10.947Z,100535.47
2018-08-17T11:54:08.548Z,100538.98
2018-08-17T11:57:06.496Z,100541.92
2018-08-17T12:00:05.677Z,100534.45
2018-08-17T12:03:03.643Z,100539.86
2018-08-17T12:06:00.726Z,100536.88
2018-08-17T12:08:58.040Z,100539.44
2018-08-17T12:11:55.864Z,100537.58
2018-08-17T12:14:54.844Z,100539.40
2018-08-17T12:17:52.788Z,100535.80
2018-08-17T12:20:50.588Z,100544.72
2018-08-17T12:23:47.706Z,100540.80
2018-08-17T12:26:53.344Z,100527.89
2018-08-17T12:29:50.316Z,100536.34
2018-08-17T12:32:48.124Z,100543.58
2018-08-17T12:35:45.897Z,100546.84
2018-08-17T12:38:43.852Z,100540.86
2018-08-17T12:41:41.069Z,100552.03
2018-08-17T12:44:40.221Z,100553.61
2018-08-17T12:47:38.356Z,100555.02
2018-08-17T12:50:36.145Z,100549.93
2018-08-17T12:53:34.147Z,100554.94
2018-08-17T12:56:32.229Z,100554.23
2018-08-17T12:59:30.197Z,100550.78
2018-08-17T13:02:27.479Z,100553.80
2018-08-17T13:05:24.805Z,100562.06
2018-08-17T13:08:22.063Z,100557.91
2018-08-17T13:11:22.122Z,100555.88
2018-08-17T13:14:19.488Z,100557.51
2018-08-17T13:17:16.712Z,100564.05
2018-08-17T13:20:14.163Z,100557.57
2018-08-17T13:23:11.911Z,100559.58
2018-08-17T13:26:09.914Z,100570.23
2018-08-17T13:29:07.171Z,100575.11
2018-08-17T13:32:05.559Z,100576.95
2018-08-17T13:35:02.982Z,100567.11
2018-08-17T13:38:00.872Z,100561.64
2018-08-17T13:40:58.267Z,100558.56
2018-08-17T13:43:56.298Z,100560.77
2018-08-17T13:46:53.693Z,100569.37
2018-08-17T13:49:51.751Z,100564.98
2018-08-17T13:52:48.903Z,100560.05
2018-08-17T13:55:46.181Z,100565.44
2018-08-17T13:58:43.581Z,100563.53
2018-08-17T14:01:41.680Z,100559.52
2018-08-17T14:04:38.996Z,100569.84
2018-08-17T14:07:36.922Z,100577.16
2018-08-17T14:10:34.939Z,100568.80
2018-08-17T14:13:33.079Z,100571.72
2018-08-17T14:16:30.244Z,100572.55
2018-08-17T14:19:36.617Z,100572.77
2018-08-17T14:22:33.907Z,100573.29
2018-08-17T14:25:31.379Z,100566.34
2018-08-17T14:28:28.646Z,100569.44
2018-08-17T14:31:26.065Z,100567.79
2018-08-17T14:34:23.491Z,100574.11
2018-08-17T14:37:21.116Z,100572.94
2018-08-17T14:40:19.156Z,100574.75
2018-08-17T14:43:17.323Z,100577.50
2018-08-17T14:46:14.739Z,100574.72
2018-08-17T14:49:12.264Z,100577.91
2018-08-17T14:52:09.923Z,100570.38
2018-08-17T14:55:07.866Z,100576.61
2018-08-17T14:58:04.920Z,100567.88
2018-08-17T15:01:02.959Z,100570.72
2018-08-17T15:04:00.819Z,100570.94
2018-08-17T15:06:58.787Z,100575.01
2018-08-17T15:09:56.694Z,100571.00
2018-08-17T15:12:54.781Z,100576.55
2018-08-17T15:15:52.775Z,100568.55
2018-08-17T15:18:50.108Z,100572.33
2018-08-17T15:21:47.619Z,100575.70
2018-08-17T15:24:44.860Z,100576.05
2018-08-17T15:30:47.377Z,100575.64
2018-08-17T15:33:45.297Z,100572.54
2018-08-17T15:36:42.825Z,100577.30
2018-08-17T15:39:40.500Z,100577.90
2018-08-17T15:42:37.959Z,100577.62
2018-08-17T15:45:36.014Z,100579.70
2018-08-17T15:48:33.289Z,100583.91
2018-08-17T15:51:31.371Z,100581.27
2018-08-17T15:54:28.532Z,100583.06
2018-08-17T15:57:26.507Z,100586.59
2018-08-17T16:00:28.823Z,100586.34
2018-08-17T16:03:26.060Z,100588.09
2018-08-17T16:06:23.907Z,100593.31
2018-08-17T16:09:22.145Z,100593.23
2018-08-17T16:12:20.156Z,100585.95
2018-08-17T16:15:17.476Z,100590.41
2018-08-17T16:18:14.656Z,100590.38
2018-08-17T16:21:12.016Z,100589.33
2018-08-17T16:24:10.295Z,100592.77
2018-08-17T16:27:07.376Z,100596.32
2018-08-17T16:30:05.231Z,100590.73
2018-08-17T16:33:02.548Z,100590.09
2018-08-17T16:35:59.949Z,100596.37
2018-08-17T16:38:58.132Z,100598.04
2018-08-17T16:41:55.613Z,100593.53
2018-08-17T16:44:53.632Z,100599.87
2018-08-17T16:47:51.607Z,100596.64
2018-08-17T16:50:49.907Z,100601.55
2018-08-17T16:53:48.060Z,100601.57
2018-08-17T16:56:45.588Z,100607.49
2018-08-17T16:59:43.625Z,100601.05
2018-08-17T17:02:41.275Z,100603.02
2018-08-17T17:05:38.855Z,100600.91
2018-08-17T17:08:36.196Z,100602.89
2018-08-17T17:11:33.635Z,100607.95
2018-08-17T17:14:30.863Z,100604.41
2018-08-17T17:17:28.813Z,100603.73
2018-08-17T17:20:27.705Z,100609.28
2018-08-17T17:23:24.831Z,100607.68
2018-08-17T17:26:23.046Z,100609.18
2018-08-17T17:29:20.400Z,100607.47
2018-08-17T17:32:18.314Z,100607.82
2018-08-17T17:35:15.593Z,100602.96
2018-08-17T17:38:13.546Z,100607.10
2018-08-17T17:41:10.795Z,100603.09
2018-08-17T17:44:08.355Z,100610.43
2018-08-17T17:47:05.349Z,100615.48
2018-08-17T17:50:02.399Z,100617.25
2018-08-17T17:53:00.597Z,100621.61
2018-08-17T17:55:59.793Z,100618.03
2018-08-17T17:58:57.922Z,100623.42
2018-08-17T18:01:56.079Z,100625.58
2018-08-17T18:04:54.069Z,100630.71
2018-08-17T18:08:00.101Z,100626.25
2018-08-17T18:10:58.084Z,100625.81
2018-08-17T18:13:56.169Z,100629.59
2018-08-17T18:16:54.035Z,100629.58
2018-08-17T18:19:52.028Z,100627.83
2018-08-17T18:22:49.859Z,100637.59
2018-08-17T18:25:47.880Z,100634.98
2018-08-17T18:28:52.054Z,100641.42
2018-08-17T18:31:49.127Z,100649.95
2018-08-17T18:34:47.161Z,100654.02
2018-08-17T18:37:44.668Z,100657.29
2018-08-17T18:40:42.948Z,100660.47
2018-08-17T18:43:41.032Z,100660.06
2018-08-17T18:46:38.174Z,100665.03
2018-08-17T18:49:35.413Z,100671.80
2018-08-17T18:52:32.747Z,100669.77
2018-08-17T18:55:30.879Z,100673.36
2018-08-17T18:58:28.823Z,100676.73
2018-08-17T19:01:26.995Z,100683.46
2018-08-17T19:04:24.266Z,100681.15
2018-08-17T19:07:21.416Z,100688.34
2018-08-17T19:10:19.535Z,100686.54
2018-08-17T19:13:17.503Z,100691.03
2018-08-17T19:16:15.440Z,100689.05
2018-08-17T19:19:13.216Z,100701.72
2018-08-17T19:22:11.331Z,100708.57
2018-08-17T19:25:09.396Z,100703.42
2018-08-17T19:28:07.456Z,100706.09
2018-08-17T19:31:05.568Z,100708.58
2018-08-17T19:34:03.719Z,100714.08
2018-08-17T19:37:00.896Z,100712.89
2018-08-17T19:39:58.844Z,100714.58
2018-08-17T19:42:56.682Z,100712.72
2018-08-17T19:45:54.739Z,100712.84
2018-08-17T19:48:52.539Z,100714.66
2018-08-17T19:51:49.576Z,100719.44
2018-08-17T19:54:46.638Z,100720.86
2018-08-17T19:57:43.848Z,100727.80
2018-08-17T20:00:40.984Z,100730.95
2018-08-17T20:03:39.082Z,100737.88
2018-08-17T20:06:37.071Z,100729.88
2018-08-17T20:09:35.003Z,100743.34
2018-08-17T20:12:32.757Z,100742.47
2018-08-17T20:15:30.084Z,100741.74
2018-08-17T20:18:27.688Z,100746.47
2018-08-17T20:21:25.557Z,100750.01
2018-08-17T20:24:23.416Z,100750.96
2018-08-17T20:27:21.462Z,100750.59
2018-08-17T20:30:27.685Z,100757.84
2018-08-17T20:33:34.786Z,100755.89
2018-08-17T20:36:37.004Z,100757.28
2018-08-17T20:39:34.908Z,100764.14
2018-08-17T20:42:32.759Z,100759.86
2018-08-17T20:45:31.638Z,100765.26
2018-08-17T20:48:28.804Z,100765.37
2018-08-17T20:51:33.899Z,100767.19
2018-08-17T20:54:31.837Z,100766.22
2018-08-17T20:57:28.883Z,100769.50
2018-08-17T21:00:26.714Z,100771.84
2018-08-17T21:03:24.406Z,100767.34
2018-08-17T21:06:22.496Z,100766.41
2018-08-17T21:09:21.388Z,100768.30
2018-08-17T21:12:18.384Z,100773.20
2018-08-17T21:15:16.368Z,100778.77
2018-08-17T21:18:14.546Z,100770.39
2018-08-17T21:21:12.506Z,100772.64
2018-08-17T21:24:09.751Z,100773.57
2018-08-17T21:27:07.197Z,100772.94
2018-08-17T21:30:04.502Z,100778.87
2018-08-17T21:33:01.724Z,100773.06
2018-08-17T21:35:59.682Z,100785.98
2018-08-17T21:38:57.870Z,100784.77
2018-08-17T21:41:57.092Z,100783.77
2018-08-17T21:44:54.956Z,100790.80
2018-08-17T21:47:52.903Z,100790.52
2018-08-17T21:50:50.086Z,100789.73
2018-08-17T21:53:47.951Z,100785.63
2018-08-17T21:56:46.086Z,100788.16
2018-08-17T21:59:50.212Z,100784.11
2018-08-17T22:02:48.319Z,100791.22
2018-08-17T22:05:45.678Z,100789.55
2018-08-17T22:08:43.476Z,100792.25
2018-08-17T22:11:48.849Z,100788.02
2018-08-17T22:14:46.597Z,100787.86
2018-08-17T22:17:50.106Z,100798.95
2018-08-17T22:20:47.969Z,100796.39
2018-08-17T22:23:45.316Z,100795.31
2018-08-17T22:26:42.644Z,100796.78
2018-08-17T22:29:40.878Z,100802.84
2018-08-17T22:32:37.929Z,100804.59
2018-08-17T22:35:35.541Z,100807.57
2018-08-17T22:38:33.428Z,100798.03
2018-08-17T22:41:31.476Z,100802.28
2018-08-17T22:44:29.709Z,100812.13
2018-08-17T22:47:35.643Z,100813.41
2018-08-17T22:50:33.641Z,100819.91
2018-08-17T22:53:31.651Z,100818.31
2018-08-17T22:56:29.805Z,100821.78
2018-08-17T22:59:27.861Z,100825.62
2018-08-17T23:02:25.224Z,100819.30
2018-08-17T23:05:26.581Z,100824.37
2018-08-17T23:08:24.647Z,100832.30
2018-08-17T23:11:26.014Z,100823.22
2018-08-17T23:14:23.807Z,100826.58
2018-08-17T23:17:21.184Z,100842.60
2018-08-17T23:20:19.401Z,100841.82
2018-08-17T23:23:17.344Z,100836.20
2018-08-17T23:26:14.844Z,100838.51
2018-08-17T23:29:12.280Z,100841.80
2018-08-17T23:32:09.455Z,100842.80
2018-08-17T23:35:06.458Z,100845.17
2018-08-17T23:38:03.575Z,100843.45
2018-08-17T23:41:01.730Z,100843.02
2018-08-17T23:43:59.809Z,100848.08
2018-08-17T23:46:56.903Z,100851.20
2018-08-17T23:49:54.220Z,100849.48
2018-08-17T23:52:51.184Z,100844.34
2018-08-17T23:55:48.715Z,100838.38
